Aérodrome :
LOGIN :

S'inscrire | Disclaimer

   EN    FR    IT 

 










Légende :    VFR   VFR Marginal   IFR   IFR Intensif   IFR Très Intensif
Visi : 
Plafond : 
>= 8 km
>= 3000ft
5 à 8 km
1000 à 3000 ft
1500m à 5 km
500 à 1000 ft
800 à 1500m
200 à 500 ft
< 800m
< 200 ft
Symboles :   Orages  Brouillard  Fortes neiges  Fortes précipitations  Vent > 20 kt
SIGMETs :   Divers  Orages  Givrage  Turbulence  Onde Orograph.  Cendres Volcan.







- Altitude de l'aérodrome : 1768 ft


LEHC - Huesca Pirineos

DERNIER METAR :
  • 230700Z AUTO 27013KT 240V300 9000 -UP OVC016/// 03/02 Q0998

METARs EXPIRÉS :
  • 230630Z AUTO 28012KT 250V310 9999 -UP SCT017/// SCT025/// BKN034/// 03/02 Q0999
  • 230600Z AUTO 28014KT 9999 -RA OVC033/// 03/02 Q0999
  • 230530Z AUTO 28016KT 9999 -RA SCT041 BKN049 03/02 Q1000
  • 230500Z AUTO 27013KT 240V300 9999 -RA SCT059 03/01 Q1000
  • 230430Z AUTO 27016KT 240V300 9999 NCD 03/01 Q1001

TAF TAF LEHC
Valide du 23 à 03h jusqu'au 24 à 03h UTC


230200Z 2303/2403 29018KT 9999 SCT020 BKN040 TX07/2314Z TNM01/2306Z
TEMPO 2303/2309 RA BKN030
PROB30
TEMPO 2304/2309 SN BKN020
TEMPO 2307/2321 29020G30KT
PROB40
TEMPO 2311/2316 29025G38KT
Pas de NOTAMs connus pour ce terrain.



MET'MAP, la Météo Aéronautique d'un coup d'oeil ! - Copyright ORBIFLY Décembre 2007 - Disclaimer

ORBIFLY MET'MAP TEAM :

Programmation & Développement : Alexandra Zaïnal
Conception & Développement : Baudouin d'Aumeries
Co-Programmation & Développement : Marc-Olivier Méhu
Soutien technique & logistique : Manuel Goepfert

Contact : metmap@orbifly.com




SOURCES & CREDITS :

   NOAA